sensor_id;sensor_type;location;lat;lon;timestamp;P1;durP1;ratioP1;P2;durP2;ratioP2
59028;SDS011;45919;51.420;5.454;2022-12-29T00:00:23;3.28;;;1.92;;
59028;SDS011;45919;51.420;5.454;2022-12-29T00:01:25;3.75;;;2.17;;
59028;SDS011;45919;51.420;5.454;2022-12-29T00:02:26;3.53;;;2.00;;
59028;SDS011;45919;51.420;5.454;2022-12-29T00:03:28;3.42;;;2.05;;
59028;SDS011;45919;51.420;5.454;2022-12-29T00:04:30;2.45;;;1.50;;
59028;SDS011;45919;51.420;5.454;2022-12-29T00:05:32;3.22;;;1.52;;
59028;SDS011;45919;51.420;5.454;2022-12-29T00:06:33;2.42;;;1.60;;
59028;SDS011;45919;51.420;5.454;2022-12-29T00:07:35;2.60;;;1.33;;
59028;SDS011;45919;51.420;5.454;2022-12-29T00:08:37;2.70;;;1.50;;
59028;SDS011;45919;51.420;5.454;2022-12-29T00:09:41;3.67;;;1.45;;
59028;SDS011;45919;51.420;5.454;2022-12-29T00:10:43;4.53;;;1.98;;
59028;SDS011;45919;51.420;5.454;2022-12-29T00:11:44;3.40;;;1.70;;
59028;SDS011;45919;51.420;5.454;2022-12-29T00:12:46;2.92;;;1.65;;
59028;SDS011;45919;51.420;5.454;2022-12-29T00:14:08;2.67;;;1.40;;
59028;SDS011;45919;51.420;5.454;2022-12-29T00:15:29;3.30;;;1.60;;
59028;SDS011;45919;51.420;5.454;2022-12-29T00:16:41;4.65;;;1.80;;
59028;SDS011;45919;51.420;5.454;2022-12-29T00:17:44;4.10;;;1.80;;
59028;SDS011;45919;51.420;5.454;2022-12-29T00:18:46;3.63;;;1.95;;
59028;SDS011;45919;51.420;5.454;2022-12-29T00:19:47;3.72;;;2.10;;
59028;SDS011;45919;51.420;5.454;2022-12-29T00:21:09;3.55;;;2.00;;
59028;SDS011;45919;51.420;5.454;2022-12-29T00:22:36;3.10;;;2.15;;
59028;SDS011;45919;51.420;5.454;2022-12-29T00:23:56;3.85;;;2.53;;
59028;SDS011;45919;51.420;5.454;2022-12-29T00:25:29;4.43;;;2.72;;
59028;SDS011;45919;51.420;5.454;2022-12-29T00:27:11;6.13;;;3.40;;
59028;SDS011;45919;51.420;5.454;2022-12-29T00:28:31;8.23;;;4.32;;
59028;SDS011;45919;51.420;5.454;2022-12-29T00:29:51;7.85;;;4.15;;
59028;SDS011;45919;51.420;5.454;2022-12-29T00:31:12;7.55;;;4.82;;
59028;SDS011;45919;51.420;5.454;2022-12-29T00:32:32;8.35;;;5.10;;
59028;SDS011;45919;51.420;5.454;2022-12-29T00:33:52;7.97;;;4.80;;
59028;SDS011;45919;51.420;5.454;2022-12-29T00:35:13;7.00;;;5.00;;
59028;SDS011;45919;51.420;5.454;2022-12-29T00:37:27;9.50;;;5.10;;
59028;SDS011;45919;51.420;5.454;2022-12-29T00:38:52;8.25;;;5.07;;
59028;SDS011;45919;51.420;5.454;2022-12-29T00:40:15;7.93;;;5.03;;
59028;SDS011;45919;51.420;5.454;2022-12-29T00:41:35;8.30;;;5.15;;
59028;SDS011;45919;51.420;5.454;2022-12-29T00:42:55;10.30;;;6.00;;
59028;SDS011;45919;51.420;5.454;2022-12-29T00:44:15;9.10;;;5.32;;
59028;SDS011;45919;51.420;5.454;2022-12-29T00:45:17;9.10;;;5.28;;
59028;SDS011;45919;51.420;5.454;2022-12-29T00:46:18;9.00;;;5.38;;
59028;SDS011;45919;51.420;5.454;2022-12-29T00:47:20;10.10;;;5.65;;
59028;SDS011;45919;51.420;5.454;2022-12-29T00:48:22;10.70;;;5.40;;
59028;SDS011;45919;51.420;5.454;2022-12-29T00:49:42;8.27;;;5.38;;
59028;SDS011;45919;51.420;5.454;2022-12-29T00:50:43;8.30;;;5.10;;
59028;SDS011;45919;51.420;5.454;2022-12-29T00:51:45;8.57;;;5.30;;
59028;SDS011;45919;51.420;5.454;2022-12-29T00:52:47;7.43;;;5.30;;
59028;SDS011;45919;51.420;5.454;2022-12-29T00:53:48;8.27;;;4.95;;
59028;SDS011;45919;51.420;5.454;2022-12-29T00:54:50;7.18;;;4.30;;
59028;SDS011;45919;51.420;5.454;2022-12-29T00:55:52;6.05;;;4.10;;
59028;SDS011;45919;51.420;5.454;2022-12-29T00:56:53;5.45;;;4.07;;
59028;SDS011;45919;51.420;5.454;2022-12-29T00:57:55;6.75;;;4.20;;
59028;SDS011;45919;51.420;5.454;2022-12-29T00:59:03;6.55;;;4.03;;
59028;SDS011;45919;51.420;5.454;2022-12-29T01:00:07;5.85;;;3.50;;
59028;SDS011;45919;51.420;5.454;2022-12-29T01:01:09;6.07;;;3.60;;
59028;SDS011;45919;51.420;5.454;2022-12-29T01:02:11;6.88;;;3.75;;
59028;SDS011;45919;51.420;5.454;2022-12-29T01:03:12;6.47;;;3.90;;
59028;SDS011;45919;51.420;5.454;2022-12-29T01:04:14;7.03;;;3.67;;
59028;SDS011;45919;51.420;5.454;2022-12-29T01:05:16;5.60;;;3.55;;
59028;SDS011;45919;51.420;5.454;2022-12-29T01:06:17;5.70;;;3.33;;
59028;SDS011;45919;51.420;5.454;2022-12-29T01:07:19;6.38;;;3.95;;
59028;SDS011;45919;51.420;5.454;2022-12-29T01:08:20;7.10;;;3.50;;
59028;SDS011;45919;51.420;5.454;2022-12-29T01:09:22;7.45;;;3.92;;
59028;SDS011;45919;51.420;5.454;2022-12-29T01:10:42;9.15;;;4.82;;
59028;SDS011;45919;51.420;5.454;2022-12-29T01:11:44;8.18;;;3.80;;
59028;SDS011;45919;51.420;5.454;2022-12-29T01:12:45;6.03;;;3.47;;
59028;SDS011;45919;51.420;5.454;2022-12-29T01:13:48;4.55;;;3.10;;
59028;SDS011;45919;51.420;5.454;2022-12-29T01:14:50;6.63;;;3.40;;
59028;SDS011;45919;51.420;5.454;2022-12-29T01:15:51;5.45;;;2.90;;
59028;SDS011;45919;51.420;5.454;2022-12-29T01:16:54;4.07;;;2.80;;
59028;SDS011;45919;51.420;5.454;2022-12-29T01:17:57;4.97;;;3.15;;
59028;SDS011;45919;51.420;5.454;2022-12-29T01:18:59;5.60;;;3.10;;
59028;SDS011;45919;51.420;5.454;2022-12-29T01:20:01;5.28;;;3.10;;
59028;SDS011;45919;51.420;5.454;2022-12-29T01:21:03;4.43;;;2.67;;
59028;SDS011;45919;51.420;5.454;2022-12-29T01:22:06;5.82;;;2.38;;
59028;SDS011;45919;51.420;5.454;2022-12-29T01:23:08;5.57;;;2.80;;
59028;SDS011;45919;51.420;5.454;2022-12-29T01:24:10;4.00;;;2.70;;
59028;SDS011;45919;51.420;5.454;2022-12-29T01:25:11;5.32;;;2.70;;
59028;SDS011;45919;51.420;5.454;2022-12-29T01:26:14;4.05;;;2.22;;
59028;SDS011;45919;51.420;5.454;2022-12-29T01:27:17;5.18;;;2.40;;
59028;SDS011;45919;51.420;5.454;2022-12-29T01:28:19;6.00;;;2.88;;
59028;SDS011;45919;51.420;5.454;2022-12-29T01:29:24;5.53;;;2.55;;
59028;SDS011;45919;51.420;5.454;2022-12-29T01:30:25;4.47;;;2.55;;
59028;SDS011;45919;51.420;5.454;2022-12-29T01:31:27;4.50;;;2.00;;
59028;SDS011;45919;51.420;5.454;2022-12-29T01:32:29;5.15;;;2.40;;
59028;SDS011;45919;51.420;5.454;2022-12-29T01:33:30;3.50;;;1.98;;
59028;SDS011;45919;51.420;5.454;2022-12-29T01:34:32;4.20;;;1.90;;
59028;SDS011;45919;51.420;5.454;2022-12-29T01:35:33;4.47;;;2.08;;
59028;SDS011;45919;51.420;5.454;2022-12-29T01:36:35;4.00;;;2.08;;
59028;SDS011;45919;51.420;5.454;2022-12-29T01:37:37;3.45;;;2.00;;
59028;SDS011;45919;51.420;5.454;2022-12-29T01:38:38;6.20;;;1.88;;
59028;SDS011;45919;51.420;5.454;2022-12-29T01:39:41;4.75;;;1.88;;
59028;SDS011;45919;51.420;5.454;2022-12-29T01:40:43;3.88;;;2.10;;
59028;SDS011;45919;51.420;5.454;2022-12-29T01:41:46;5.97;;;2.10;;
59028;SDS011;45919;51.420;5.454;2022-12-29T01:42:48;4.10;;;1.88;;
59028;SDS011;45919;51.420;5.454;2022-12-29T01:43:53;5.80;;;2.35;;
59028;SDS011;45919;51.420;5.454;2022-12-29T01:45:08;3.47;;;1.83;;
59028;SDS011;45919;51.420;5.454;2022-12-29T01:48:35;6.70;;;2.22;;
59028;SDS011;45919;51.420;5.454;2022-12-29T01:49:37;5.30;;;1.83;;
59028;SDS011;45919;51.420;5.454;2022-12-29T01:50:40;3.83;;;1.98;;
59028;SDS011;45919;51.420;5.454;2022-12-29T01:52:00;3.35;;;1.85;;
59028;SDS011;45919;51.420;5.454;2022-12-29T01:53:11;3.03;;;1.50;;
59028;SDS011;45919;51.420;5.454;2022-12-29T01:54:22;3.50;;;1.98;;
59028;SDS011;45919;51.420;5.454;2022-12-29T01:55:29;3.95;;;1.67;;
59028;SDS011;45919;51.420;5.454;2022-12-29T01:56:35;4.28;;;1.55;;
59028;SDS011;45919;51.420;5.454;2022-12-29T01:57:38;4.32;;;1.60;;
59028;SDS011;45919;51.420;5.454;2022-12-29T01:58:46;6.45;;;1.83;;
59028;SDS011;45919;51.420;5.454;2022-12-29T02:00:02;4.07;;;2.03;;
59028;SDS011;45919;51.420;5.454;2022-12-29T02:01:06;2.28;;;1.42;;
59028;SDS011;45919;51.420;5.454;2022-12-29T02:02:09;3.50;;;1.83;;
59028;SDS011;45919;51.420;5.454;2022-12-29T02:03:11;3.83;;;1.58;;
59028;SDS011;45919;51.420;5.454;2022-12-29T02:04:13;3.45;;;1.58;;
59028;SDS011;45919;51.420;5.454;2022-12-29T02:06:53;5.35;;;1.90;;
59028;SDS011;45919;51.420;5.454;2022-12-29T02:07:59;4.75;;;1.55;;
59028;SDS011;45919;51.420;5.454;2022-12-29T02:09:01;4.07;;;2.00;;
59028;SDS011;45919;51.420;5.454;2022-12-29T02:10:03;5.00;;;1.85;;
59028;SDS011;45919;51.420;5.454;2022-12-29T02:11:05;4.22;;;1.95;;
59028;SDS011;45919;51.420;5.454;2022-12-29T02:12:09;5.97;;;1.90;;
59028;SDS011;45919;51.420;5.454;2022-12-29T02:13:11;7.60;;;1.98;;
59028;SDS011;45919;51.420;5.454;2022-12-29T02:14:13;3.95;;;1.70;;
59028;SDS011;45919;51.420;5.454;2022-12-29T02:15:15;4.15;;;1.80;;
59028;SDS011;45919;51.420;5.454;2022-12-29T02:17:35;3.38;;;1.35;;
59028;SDS011;45919;51.420;5.454;2022-12-29T02:24:16;4.35;;;1.70;;
59028;SDS011;45919;51.420;5.454;2022-12-29T02:27:03;5.22;;;1.60;;
59028;SDS011;45919;51.420;5.454;2022-12-29T02:29:45;5.28;;;1.50;;
59028;SDS011;45919;51.420;5.454;2022-12-29T02:34:08;4.38;;;2.20;;
59028;SDS011;45919;51.420;5.454;2022-12-29T02:35:34;6.50;;;1.88;;
59028;SDS011;45919;51.420;5.454;2022-12-29T02:36:45;4.28;;;1.98;;
59028;SDS011;45919;51.420;5.454;2022-12-29T02:44:14;4.93;;;1.67;;
59028;SDS011;45919;51.420;5.454;2022-12-29T02:45:39;3.92;;;1.80;;
59028;SDS011;45919;51.420;5.454;2022-12-29T02:46:51;3.78;;;1.60;;
59028;SDS011;45919;51.420;5.454;2022-12-29T02:48:18;3.92;;;1.55;;
59028;SDS011;45919;51.420;5.454;2022-12-29T02:51:18;2.83;;;1.48;;
59028;SDS011;45919;51.420;5.454;2022-12-29T02:52:06;4.28;;;1.63;;
59028;SDS011;45919;51.420;5.454;2022-12-29T02:53:15;3.60;;;1.50;;
59028;SDS011;45919;51.420;5.454;2022-12-29T02:54:39;3.25;;;1.70;;
59028;SDS011;45919;51.420;5.454;2022-12-29T02:55:48;3.83;;;1.70;;
59028;SDS011;45919;51.420;5.454;2022-12-29T02:56:50;5.20;;;1.52;;
59028;SDS011;45919;51.420;5.454;2022-12-29T02:59:15;6.80;;;2.10;;
59028;SDS011;45919;51.420;5.454;2022-12-29T03:00:17;3.85;;;1.67;;
59028;SDS011;45919;51.420;5.454;2022-12-29T03:14:45;4.22;;;1.75;;
59028;SDS011;45919;51.420;5.454;2022-12-29T03:17:51;5.07;;;1.80;;
59028;SDS011;45919;51.420;5.454;2022-12-29T03:20:17;4.38;;;1.95;;
59028;SDS011;45919;51.420;5.454;2022-12-29T03:21:33;6.40;;;1.77;;
59028;SDS011;45919;51.420;5.454;2022-12-29T03:22:59;3.97;;;1.63;;
59028;SDS011;45919;51.420;5.454;2022-12-29T03:24:03;3.03;;;1.60;;
59028;SDS011;45919;51.420;5.454;2022-12-29T03:26:12;5.28;;;1.40;;
59028;SDS011;45919;51.420;5.454;2022-12-29T03:27:18;6.53;;;1.55;;
59028;SDS011;45919;51.420;5.454;2022-12-29T03:28:26;4.28;;;2.10;;
59028;SDS011;45919;51.420;5.454;2022-12-29T03:29:35;3.15;;;1.63;;
59028;SDS011;45919;51.420;5.454;2022-12-29T03:30:41;3.42;;;1.92;;
59028;SDS011;45919;51.420;5.454;2022-12-29T03:31:43;4.25;;;1.65;;
59028;SDS011;45919;51.420;5.454;2022-12-29T03:32:54;3.05;;;1.50;;
59028;SDS011;45919;51.420;5.454;2022-12-29T03:33:59;3.92;;;1.67;;
59028;SDS011;45919;51.420;5.454;2022-12-29T03:35:02;5.43;;;1.60;;
59028;SDS011;45919;51.420;5.454;2022-12-29T03:36:07;3.45;;;1.55;;
59028;SDS011;45919;51.420;5.454;2022-12-29T03:37:15;3.40;;;1.50;;
59028;SDS011;45919;51.420;5.454;2022-12-29T03:39:27;3.35;;;1.50;;
59028;SDS011;45919;51.420;5.454;2022-12-29T03:40:28;4.63;;;1.25;;
59028;SDS011;45919;51.420;5.454;2022-12-29T03:41:33;3.85;;;1.60;;
59028;SDS011;45919;51.420;5.454;2022-12-29T03:42:36;3.70;;;1.30;;
59028;SDS011;45919;51.420;5.454;2022-12-29T03:43:39;2.85;;;1.10;;
59028;SDS011;45919;51.420;5.454;2022-12-29T03:44:42;4.93;;;1.23;;
59028;SDS011;45919;51.420;5.454;2022-12-29T03:45:45;3.15;;;1.38;;
59028;SDS011;45919;51.420;5.454;2022-12-29T03:46:46;3.97;;;1.40;;
59028;SDS011;45919;51.420;5.454;2022-12-29T03:47:48;4.93;;;1.50;;
59028;SDS011;45919;51.420;5.454;2022-12-29T03:48:50;3.60;;;1.10;;
59028;SDS011;45919;51.420;5.454;2022-12-29T03:49:51;3.25;;;0.98;;
59028;SDS011;45919;51.420;5.454;2022-12-29T03:50:53;4.53;;;1.55;;
59028;SDS011;45919;51.420;5.454;2022-12-29T03:51:55;4.65;;;1.25;;
59028;SDS011;45919;51.420;5.454;2022-12-29T03:52:56;3.72;;;1.30;;
59028;SDS011;45919;51.420;5.454;2022-12-29T03:53:58;7.35;;;1.50;;
59028;SDS011;45919;51.420;5.454;2022-12-29T03:55:00;2.90;;;1.45;;
59028;SDS011;45919;51.420;5.454;2022-12-29T03:56:01;6.80;;;1.40;;
59028;SDS011;45919;51.420;5.454;2022-12-29T03:57:03;8.25;;;1.20;;
59028;SDS011;45919;51.420;5.454;2022-12-29T03:58:05;3.28;;;1.20;;
59028;SDS011;45919;51.420;5.454;2022-12-29T03:59:07;5.47;;;1.23;;
59028;SDS011;45919;51.420;5.454;2022-12-29T04:00:09;4.15;;;1.15;;
59028;SDS011;45919;51.420;5.454;2022-12-29T04:01:11;5.93;;;1.30;;
59028;SDS011;45919;51.420;5.454;2022-12-29T04:02:12;3.70;;;0.82;;
59028;SDS011;45919;51.420;5.454;2022-12-29T04:03:14;4.13;;;1.30;;
59028;SDS011;45919;51.420;5.454;2022-12-29T04:04:15;3.75;;;1.10;;
59028;SDS011;45919;51.420;5.454;2022-12-29T04:05:17;2.47;;;0.90;;
59028;SDS011;45919;51.420;5.454;2022-12-29T04:06:19;2.20;;;0.80;;
59028;SDS011;45919;51.420;5.454;2022-12-29T04:07:20;3.25;;;1.10;;
59028;SDS011;45919;51.420;5.454;2022-12-29T04:08:22;5.65;;;1.10;;
59028;SDS011;45919;51.420;5.454;2022-12-29T04:09:24;4.32;;;1.00;;
59028;SDS011;45919;51.420;5.454;2022-12-29T04:10:25;4.13;;;0.90;;
59028;SDS011;45919;51.420;5.454;2022-12-29T04:11:27;5.20;;;1.67;;
59028;SDS011;45919;51.420;5.454;2022-12-29T04:12:32;4.22;;;0.98;;
59028;SDS011;45919;51.420;5.454;2022-12-29T04:13:34;3.83;;;0.80;;
59028;SDS011;45919;51.420;5.454;2022-12-29T04:14:36;5.00;;;1.02;;
59028;SDS011;45919;51.420;5.454;2022-12-29T04:15:37;5.55;;;1.08;;
59028;SDS011;45919;51.420;5.454;2022-12-29T04:16:39;1.88;;;0.55;;
59028;SDS011;45919;51.420;5.454;2022-12-29T04:17:40;4.32;;;0.82;;
59028;SDS011;45919;51.420;5.454;2022-12-29T04:18:42;5.13;;;0.90;;
59028;SDS011;45919;51.420;5.454;2022-12-29T04:19:44;1.70;;;0.63;;
59028;SDS011;45919;51.420;5.454;2022-12-29T04:20:45;4.15;;;0.77;;
59028;SDS011;45919;51.420;5.454;2022-12-29T04:22:02;4.90;;;0.80;;
59028;SDS011;45919;51.420;5.454;2022-12-29T04:23:04;2.65;;;0.73;;
59028;SDS011;45919;51.420;5.454;2022-12-29T04:24:07;3.40;;;0.60;;
59028;SDS011;45919;51.420;5.454;2022-12-29T04:25:09;3.38;;;1.10;;
59028;SDS011;45919;51.420;5.454;2022-12-29T04:26:11;3.28;;;0.88;;
59028;SDS011;45919;51.420;5.454;2022-12-29T04:27:13;4.43;;;0.95;;
59028;SDS011;45919;51.420;5.454;2022-12-29T04:28:15;5.25;;;0.77;;
59028;SDS011;45919;51.420;5.454;2022-12-29T04:29:17;3.03;;;1.10;;
59028;SDS011;45919;51.420;5.454;2022-12-29T04:30:19;2.67;;;0.88;;
59028;SDS011;45919;51.420;5.454;2022-12-29T04:31:20;4.82;;;1.00;;
59028;SDS011;45919;51.420;5.454;2022-12-29T04:32:22;6.40;;;1.00;;
59028;SDS011;45919;51.420;5.454;2022-12-29T04:33:23;3.72;;;0.93;;
59028;SDS011;45919;51.420;5.454;2022-12-29T04:34:26;4.57;;;1.17;;
59028;SDS011;45919;51.420;5.454;2022-12-29T04:35:28;4.18;;;1.13;;
59028;SDS011;45919;51.420;5.454;2022-12-29T04:36:29;5.38;;;1.08;;
59028;SDS011;45919;51.420;5.454;2022-12-29T04:37:31;4.70;;;1.15;;
59028;SDS011;45919;51.420;5.454;2022-12-29T04:38:32;9.68;;;1.40;;
59028;SDS011;45919;51.420;5.454;2022-12-29T04:39:34;9.25;;;1.30;;
59028;SDS011;45919;51.420;5.454;2022-12-29T04:40:37;4.30;;;1.20;;
59028;SDS011;45919;51.420;5.454;2022-12-29T04:41:40;6.85;;;0.98;;
59028;SDS011;45919;51.420;5.454;2022-12-29T04:42:42;9.77;;;1.60;;
59028;SDS011;45919;51.420;5.454;2022-12-29T04:43:43;3.95;;;1.38;;
59028;SDS011;45919;51.420;5.454;2022-12-29T04:44:45;8.13;;;1.40;;
59028;SDS011;45919;51.420;5.454;2022-12-29T04:45:46;9.80;;;1.30;;
59028;SDS011;45919;51.420;5.454;2022-12-29T04:46:48;7.93;;;1.38;;
59028;SDS011;45919;51.420;5.454;2022-12-29T04:47:50;4.78;;;1.30;;
59028;SDS011;45919;51.420;5.454;2022-12-29T04:48:52;7.43;;;1.60;;
59028;SDS011;45919;51.420;5.454;2022-12-29T04:49:53;6.10;;;1.50;;
59028;SDS011;45919;51.420;5.454;2022-12-29T04:50:55;5.93;;;1.10;;
59028;SDS011;45919;51.420;5.454;2022-12-29T04:51:56;7.75;;;1.33;;
59028;SDS011;45919;51.420;5.454;2022-12-29T04:52:58;5.88;;;1.50;;
59028;SDS011;45919;51.420;5.454;2022-12-29T04:54:00;7.32;;;1.20;;
59028;SDS011;45919;51.420;5.454;2022-12-29T04:55:01;6.57;;;1.63;;
59028;SDS011;45919;51.420;5.454;2022-12-29T04:56:04;6.50;;;1.27;;
59028;SDS011;45919;51.420;5.454;2022-12-29T04:57:06;5.93;;;1.50;;
59028;SDS011;45919;51.420;5.454;2022-12-29T04:58:08;7.85;;;1.30;;
59028;SDS011;45919;51.420;5.454;2022-12-29T04:59:10;10.70;;;1.52;;
59028;SDS011;45919;51.420;5.454;2022-12-29T05:00:11;6.07;;;1.20;;
59028;SDS011;45919;51.420;5.454;2022-12-29T05:01:14;4.47;;;1.23;;
59028;SDS011;45919;51.420;5.454;2022-12-29T05:02:15;7.10;;;1.20;;
59028;SDS011;45919;51.420;5.454;2022-12-29T05:03:17;6.40;;;1.90;;
59028;SDS011;45919;51.420;5.454;2022-12-29T05:04:19;5.35;;;1.40;;
59028;SDS011;45919;51.420;5.454;2022-12-29T05:05:21;9.20;;;1.15;;
59028;SDS011;45919;51.420;5.454;2022-12-29T05:06:22;6.68;;;1.27;;
59028;SDS011;45919;51.420;5.454;2022-12-29T05:07:24;8.15;;;1.63;;
59028;SDS011;45919;51.420;5.454;2022-12-29T05:08:26;7.15;;;1.00;;
59028;SDS011;45919;51.420;5.454;2022-12-29T05:09:28;4.65;;;1.05;;
59028;SDS011;45919;51.420;5.454;2022-12-29T05:10:31;5.90;;;1.30;;
59028;SDS011;45919;51.420;5.454;2022-12-29T05:11:32;5.63;;;1.50;;
59028;SDS011;45919;51.420;5.454;2022-12-29T05:12:34;4.75;;;1.20;;
59028;SDS011;45919;51.420;5.454;2022-12-29T05:13:37;5.95;;;0.88;;
59028;SDS011;45919;51.420;5.454;2022-12-29T05:14:39;5.57;;;1.05;;
59028;SDS011;45919;51.420;5.454;2022-12-29T05:15:40;4.22;;;1.08;;
59028;SDS011;45919;51.420;5.454;2022-12-29T05:16:42;3.35;;;1.10;;
59028;SDS011;45919;51.420;5.454;2022-12-29T05:17:43;3.70;;;1.08;;
59028;SDS011;45919;51.420;5.454;2022-12-29T05:18:45;3.83;;;1.15;;
59028;SDS011;45919;51.420;5.454;2022-12-29T05:19:47;6.70;;;0.93;;
59028;SDS011;45919;51.420;5.454;2022-12-29T05:20:48;5.45;;;1.55;;
59028;SDS011;45919;51.420;5.454;2022-12-29T05:21:50;6.97;;;2.10;;
59028;SDS011;45919;51.420;5.454;2022-12-29T05:22:52;4.75;;;1.50;;
59028;SDS011;45919;51.420;5.454;2022-12-29T05:23:53;6.28;;;1.40;;
59028;SDS011;45919;51.420;5.454;2022-12-29T05:24:55;2.70;;;1.17;;
59028;SDS011;45919;51.420;5.454;2022-12-29T05:25:56;4.20;;;1.13;;
59028;SDS011;45919;51.420;5.454;2022-12-29T05:26:58;2.30;;;1.17;;
59028;SDS011;45919;51.420;5.454;2022-12-29T05:27:59;3.20;;;1.33;;
59028;SDS011;45919;51.420;5.454;2022-12-29T05:29:01;4.45;;;1.38;;
59028;SDS011;45919;51.420;5.454;2022-12-29T05:30:03;4.10;;;1.38;;
59028;SDS011;45919;51.420;5.454;2022-12-29T05:31:06;4.00;;;1.20;;
59028;SDS011;45919;51.420;5.454;2022-12-29T05:32:07;5.05;;;1.00;;
59028;SDS011;45919;51.420;5.454;2022-12-29T05:33:09;4.55;;;1.20;;
59028;SDS011;45919;51.420;5.454;2022-12-29T05:34:12;6.28;;;1.55;;
59028;SDS011;45919;51.420;5.454;2022-12-29T05:35:14;3.83;;;1.23;;
59028;SDS011;45919;51.420;5.454;2022-12-29T05:36:16;6.95;;;1.10;;
59028;SDS011;45919;51.420;5.454;2022-12-29T05:37:17;8.13;;;1.50;;
59028;SDS011;45919;51.420;5.454;2022-12-29T05:38:19;5.75;;;1.20;;
59028;SDS011;45919;51.420;5.454;2022-12-29T05:39:21;5.93;;;1.77;;
59028;SDS011;45919;51.420;5.454;2022-12-29T05:40:22;5.05;;;1.15;;
59028;SDS011;45919;51.420;5.454;2022-12-29T05:41:24;3.65;;;1.08;;
59028;SDS011;45919;51.420;5.454;2022-12-29T05:42:26;4.15;;;1.23;;
59028;SDS011;45919;51.420;5.454;2022-12-29T05:43:28;6.75;;;1.75;;
59028;SDS011;45919;51.420;5.454;2022-12-29T05:44:30;8.73;;;1.52;;
59028;SDS011;45919;51.420;5.454;2022-12-29T05:45:31;4.45;;;1.25;;
59028;SDS011;45919;51.420;5.454;2022-12-29T05:46:33;4.70;;;1.20;;
59028;SDS011;45919;51.420;5.454;2022-12-29T05:47:34;5.13;;;1.10;;
59028;SDS011;45919;51.420;5.454;2022-12-29T05:48:36;5.28;;;1.00;;
59028;SDS011;45919;51.420;5.454;2022-12-29T05:49:38;5.00;;;1.25;;
59028;SDS011;45919;51.420;5.454;2022-12-29T05:50:40;4.55;;;1.60;;
59028;SDS011;45919;51.420;5.454;2022-12-29T05:51:41;4.68;;;1.38;;
59028;SDS011;45919;51.420;5.454;2022-12-29T05:52:43;6.95;;;1.23;;
59028;SDS011;45919;51.420;5.454;2022-12-29T05:53:45;5.05;;;1.30;;
59028;SDS011;45919;51.420;5.454;2022-12-29T05:54:46;5.03;;;1.30;;
59028;SDS011;45919;51.420;5.454;2022-12-29T05:55:48;4.85;;;1.20;;
59028;SDS011;45919;51.420;5.454;2022-12-29T05:56:50;5.95;;;1.33;;
59028;SDS011;45919;51.420;5.454;2022-12-29T05:57:51;5.70;;;1.15;;
59028;SDS011;45919;51.420;5.454;2022-12-29T05:58:53;3.00;;;1.20;;
59028;SDS011;45919;51.420;5.454;2022-12-29T05:59:54;8.43;;;1.50;;
59028;SDS011;45919;51.420;5.454;2022-12-29T06:00:56;4.55;;;1.40;;
59028;SDS011;45919;51.420;5.454;2022-12-29T06:01:58;3.95;;;1.30;;
59028;SDS011;45919;51.420;5.454;2022-12-29T06:02:59;5.40;;;1.38;;
59028;SDS011;45919;51.420;5.454;2022-12-29T06:04:01;4.63;;;1.35;;
59028;SDS011;45919;51.420;5.454;2022-12-29T06:05:03;5.68;;;1.40;;
59028;SDS011;45919;51.420;5.454;2022-12-29T06:06:05;7.03;;;1.58;;
59028;SDS011;45919;51.420;5.454;2022-12-29T06:07:06;4.65;;;1.50;;
59028;SDS011;45919;51.420;5.454;2022-12-29T06:08:08;4.25;;;1.30;;
59028;SDS011;45919;51.420;5.454;2022-12-29T06:09:09;5.35;;;1.05;;
59028;SDS011;45919;51.420;5.454;2022-12-29T06:10:12;4.85;;;1.25;;
59028;SDS011;45919;51.420;5.454;2022-12-29T06:11:13;4.70;;;1.33;;
59028;SDS011;45919;51.420;5.454;2022-12-29T06:12:15;4.80;;;1.45;;
59028;SDS011;45919;51.420;5.454;2022-12-29T06:13:17;8.07;;;2.22;;
59028;SDS011;45919;51.420;5.454;2022-12-29T06:14:18;8.02;;;1.92;;
59028;SDS011;45919;51.420;5.454;2022-12-29T06:15:21;6.30;;;1.35;;
59028;SDS011;45919;51.420;5.454;2022-12-29T06:16:22;6.43;;;1.30;;
59028;SDS011;45919;51.420;5.454;2022-12-29T06:17:24;7.22;;;1.23;;
59028;SDS011;45919;51.420;5.454;2022-12-29T06:18:26;4.63;;;1.30;;
59028;SDS011;45919;51.420;5.454;2022-12-29T06:19:27;6.25;;;1.58;;
59028;SDS011;45919;51.420;5.454;2022-12-29T06:20:29;6.28;;;1.20;;
59028;SDS011;45919;51.420;5.454;2022-12-29T06:21:31;10.57;;;1.50;;
59028;SDS011;45919;51.420;5.454;2022-12-29T06:22:32;6.32;;;1.42;;
59028;SDS011;45919;51.420;5.454;2022-12-29T06:23:34;6.60;;;1.45;;
59028;SDS011;45919;51.420;5.454;2022-12-29T06:24:36;8.85;;;1.40;;
59028;SDS011;45919;51.420;5.454;2022-12-29T06:25:37;5.28;;;1.30;;
59028;SDS011;45919;51.420;5.454;2022-12-29T06:26:39;4.93;;;1.17;;
59028;SDS011;45919;51.420;5.454;2022-12-29T06:27:41;4.90;;;1.40;;
59028;SDS011;45919;51.420;5.454;2022-12-29T06:28:43;6.13;;;1.42;;
59028;SDS011;45919;51.420;5.454;2022-12-29T06:29:45;4.15;;;1.33;;
59028;SDS011;45919;51.420;5.454;2022-12-29T06:30:47;5.78;;;1.42;;
59028;SDS011;45919;51.420;5.454;2022-12-29T06:31:49;6.28;;;1.50;;
59028;SDS011;45919;51.420;5.454;2022-12-29T06:32:52;7.95;;;1.33;;
59028;SDS011;45919;51.420;5.454;2022-12-29T06:33:53;6.78;;;1.40;;
59028;SDS011;45919;51.420;5.454;2022-12-29T06:34:55;8.15;;;1.48;;
59028;SDS011;45919;51.420;5.454;2022-12-29T06:35:56;4.32;;;1.30;;
59028;SDS011;45919;51.420;5.454;2022-12-29T06:36:58;4.45;;;1.30;;
59028;SDS011;45919;51.420;5.454;2022-12-29T06:38:00;7.95;;;1.50;;
59028;SDS011;45919;51.420;5.454;2022-12-29T06:39:01;6.22;;;1.52;;
59028;SDS011;45919;51.420;5.454;2022-12-29T06:40:03;4.85;;;1.20;;
59028;SDS011;45919;51.420;5.454;2022-12-29T06:41:05;6.75;;;1.25;;
59028;SDS011;45919;51.420;5.454;2022-12-29T06:42:06;6.20;;;1.63;;
59028;SDS011;45919;51.420;5.454;2022-12-29T06:43:10;5.55;;;1.20;;
59028;SDS011;45919;51.420;5.454;2022-12-29T06:44:12;5.63;;;1.15;;
59028;SDS011;45919;51.420;5.454;2022-12-29T06:45:13;7.22;;;1.70;;
59028;SDS011;45919;51.420;5.454;2022-12-29T06:46:15;6.45;;;1.45;;
59028;SDS011;45919;51.420;5.454;2022-12-29T06:47:17;6.65;;;1.13;;
59028;SDS011;45919;51.420;5.454;2022-12-29T06:48:18;7.25;;;1.60;;
59028;SDS011;45919;51.420;5.454;2022-12-29T06:49:20;5.88;;;1.30;;
59028;SDS011;45919;51.420;5.454;2022-12-29T06:50:22;6.28;;;1.50;;
59028;SDS011;45919;51.420;5.454;2022-12-29T06:51:23;7.53;;;1.77;;
59028;SDS011;45919;51.420;5.454;2022-12-29T06:52:25;5.85;;;1.52;;
59028;SDS011;45919;51.420;5.454;2022-12-29T06:53:27;9.40;;;1.60;;
59028;SDS011;45919;51.420;5.454;2022-12-29T06:54:29;5.70;;;1.80;;
59028;SDS011;45919;51.420;5.454;2022-12-29T06:55:31;8.63;;;1.65;;
59028;SDS011;45919;51.420;5.454;2022-12-29T06:56:33;8.48;;;1.27;;
59028;SDS011;45919;51.420;5.454;2022-12-29T06:57:37;5.35;;;1.50;;
59028;SDS011;45919;51.420;5.454;2022-12-29T06:58:38;8.65;;;1.65;;
59028;SDS011;45919;51.420;5.454;2022-12-29T06:59:40;7.50;;;1.23;;
59028;SDS011;45919;51.420;5.454;2022-12-29T07:00:42;5.80;;;1.65;;
59028;SDS011;45919;51.420;5.454;2022-12-29T07:01:43;7.85;;;1.73;;
59028;SDS011;45919;51.420;5.454;2022-12-29T07:02:45;9.18;;;1.38;;
59028;SDS011;45919;51.420;5.454;2022-12-29T07:03:47;6.75;;;1.70;;
59028;SDS011;45919;51.420;5.454;2022-12-29T07:04:49;6.85;;;1.50;;
59028;SDS011;45919;51.420;5.454;2022-12-29T07:05:50;6.53;;;1.50;;
59028;SDS011;45919;51.420;5.454;2022-12-29T07:06:52;8.73;;;1.60;;
59028;SDS011;45919;51.420;5.454;2022-12-29T07:07:54;8.82;;;1.58;;
59028;SDS011;45919;51.420;5.454;2022-12-29T07:08:56;5.05;;;1.10;;
59028;SDS011;45919;51.420;5.454;2022-12-29T07:09:58;6.90;;;1.75;;
59028;SDS011;45919;51.420;5.454;2022-12-29T07:11:00;8.13;;;1.60;;
59028;SDS011;45919;51.420;5.454;2022-12-29T07:12:01;6.82;;;1.80;;
59028;SDS011;45919;51.420;5.454;2022-12-29T07:13:03;10.25;;;1.55;;